sensor_id;sensor_type;location;lat;lon;timestamp;pressure;altitude;pressure_sealevel;temperature;humidity
46574;BME280;32299;53.366;-1.544;2022-08-25T00:02:12;99168.53;;;22.27;42.65
46574;BME280;32299;53.366;-1.544;2022-08-25T00:04:40;99173.81;;;22.21;42.70
46574;BME280;32299;53.366;-1.544;2022-08-25T00:07:07;99175.54;;;22.21;42.71
46574;BME280;32299;53.366;-1.544;2022-08-25T00:09:35;99176.49;;;22.47;42.70
46574;BME280;32299;53.366;-1.544;2022-08-25T00:12:04;99172.39;;;22.21;42.71
46574;BME280;32299;53.366;-1.544;2022-08-25T00:14:33;99169.23;;;22.07;43.52
46574;BME280;32299;53.366;-1.544;2022-08-25T00:17:01;99169.92;;;22.37;43.23
46574;BME280;32299;53.366;-1.544;2022-08-25T00:19:31;99174.66;;;22.27;43.35
46574;BME280;32299;53.366;-1.544;2022-08-25T00:21:59;99188.29;;;22.27;43.36
46574;BME280;32299;53.366;-1.544;2022-08-25T00:24:27;99194.51;;;22.09;43.20
46574;BME280;32299;53.366;-1.544;2022-08-25T00:26:56;99190.40;;;22.39;43.15
46574;BME280;32299;53.366;-1.544;2022-08-25T00:29:25;99180.91;;;22.42;43.01
46574;BME280;32299;53.366;-1.544;2022-08-25T00:31:54;99180.58;;;22.02;43.46
46574;BME280;32299;53.366;-1.544;2022-08-25T00:34:24;99176.56;;;22.09;43.28
46574;BME280;32299;53.366;-1.544;2022-08-25T00:36:52;99165.90;;;22.06;43.19
46574;BME280;32299;53.366;-1.544;2022-08-25T00:39:21;99160.80;;;22.32;43.21
46574;BME280;32299;53.366;-1.544;2022-08-25T00:41:51;99173.08;;;21.75;45.02
46574;BME280;32299;53.366;-1.544;2022-08-25T00:44:19;99181.73;;;21.60;44.91
46574;BME280;32299;53.366;-1.544;2022-08-25T00:46:50;99183.31;;;22.21;44.04
46574;BME280;32299;53.366;-1.544;2022-08-25T00:49:22;99184.70;;;22.00;43.63
46574;BME280;32299;53.366;-1.544;2022-08-25T00:51:56;99179.05;;;21.88;43.74
46574;BME280;32299;53.366;-1.544;2022-08-25T00:54:28;99169.08;;;22.03;43.30
46574;BME280;32299;53.366;-1.544;2022-08-25T00:56:58;99163.64;;;22.45;43.41
46574;BME280;32299;53.366;-1.544;2022-08-25T00:59:26;99161.90;;;22.38;43.57
46574;BME280;32299;53.366;-1.544;2022-08-25T01:01:55;99158.81;;;22.44;43.06
46574;BME280;32299;53.366;-1.544;2022-08-25T01:04:23;99161.06;;;22.10;43.44
46574;BME280;32299;53.366;-1.544;2022-08-25T01:06:50;99160.96;;;22.13;43.32
46574;BME280;32299;53.366;-1.544;2022-08-25T01:09:18;99163.67;;;21.81;43.44
46574;BME280;32299;53.366;-1.544;2022-08-25T01:11:46;99164.00;;;22.10;43.20
46574;BME280;32299;53.366;-1.544;2022-08-25T01:14:16;99166.73;;;22.00;43.43
46574;BME280;32299;53.366;-1.544;2022-08-25T01:16:44;99159.66;;;21.95;43.37
46574;BME280;32299;53.366;-1.544;2022-08-25T01:19:13;99158.45;;;22.19;43.00
46574;BME280;32299;53.366;-1.544;2022-08-25T01:21:43;99162.90;;;21.70;43.28
46574;BME280;32299;53.366;-1.544;2022-08-25T01:24:15;99173.11;;;21.63;44.33
46574;BME280;32299;53.366;-1.544;2022-08-25T01:26:45;99176.50;;;22.02;43.23
46574;BME280;32299;53.366;-1.544;2022-08-25T01:29:12;99175.78;;;21.84;43.91
46574;BME280;32299;53.366;-1.544;2022-08-25T01:31:40;99171.92;;;21.39;43.68
46574;BME280;32299;53.366;-1.544;2022-08-25T01:34:09;99168.90;;;21.93;43.40
46574;BME280;32299;53.366;-1.544;2022-08-25T01:36:36;99171.09;;;21.81;43.69
46574;BME280;32299;53.366;-1.544;2022-08-25T01:39:03;99169.86;;;21.79;43.66
46574;BME280;32299;53.366;-1.544;2022-08-25T01:41:39;99168.62;;;21.60;43.24
46574;BME280;32299;53.366;-1.544;2022-08-25T01:44:07;99167.44;;;21.72;43.29
46574;BME280;32299;53.366;-1.544;2022-08-25T01:46:34;99169.15;;;21.51;44.01
46574;BME280;32299;53.366;-1.544;2022-08-25T01:49:02;99167.55;;;21.50;44.19
46574;BME280;32299;53.366;-1.544;2022-08-25T01:51:33;99168.78;;;21.57;43.47
46574;BME280;32299;53.366;-1.544;2022-08-25T01:54:01;99169.23;;;21.28;43.85
46574;BME280;32299;53.366;-1.544;2022-08-25T01:56:29;99164.85;;;21.57;43.75
46574;BME280;32299;53.366;-1.544;2022-08-25T01:58:56;99165.78;;;21.47;43.94
46574;BME280;32299;53.366;-1.544;2022-08-25T02:01:23;99164.93;;;21.54;43.27
46574;BME280;32299;53.366;-1.544;2022-08-25T02:03:52;99170.70;;;21.50;43.65
46574;BME280;32299;53.366;-1.544;2022-08-25T02:06:23;99178.10;;;21.31;44.10
46574;BME280;32299;53.366;-1.544;2022-08-25T02:08:52;99182.87;;;21.46;43.95
46574;BME280;32299;53.366;-1.544;2022-08-25T02:11:20;99178.01;;;21.20;44.85
46574;BME280;32299;53.366;-1.544;2022-08-25T02:13:48;99171.54;;;21.29;44.69
46574;BME280;32299;53.366;-1.544;2022-08-25T02:16:19;99160.70;;;21.38;44.21
46574;BME280;32299;53.366;-1.544;2022-08-25T02:18:48;99154.38;;;21.14;43.59
46574;BME280;32299;53.366;-1.544;2022-08-25T02:21:15;99159.52;;;20.58;46.24
46574;BME280;32299;53.366;-1.544;2022-08-25T02:23:43;99159.96;;;21.34;44.72
46574;BME280;32299;53.366;-1.544;2022-08-25T02:26:11;99155.08;;;20.99;45.09
46574;BME280;32299;53.366;-1.544;2022-08-25T02:28:38;99151.52;;;21.08;44.70
46574;BME280;32299;53.366;-1.544;2022-08-25T02:31:05;99160.69;;;21.10;43.80
46574;BME280;32299;53.366;-1.544;2022-08-25T02:33:32;99169.78;;;21.16;43.96
46574;BME280;32299;53.366;-1.544;2022-08-25T02:36:00;99172.46;;;20.17;46.31
46574;BME280;32299;53.366;-1.544;2022-08-25T02:38:28;99162.58;;;20.84;45.26
46574;BME280;32299;53.366;-1.544;2022-08-25T02:40:56;99157.41;;;21.08;44.28
46574;BME280;32299;53.366;-1.544;2022-08-25T02:43:24;99156.05;;;20.87;44.24
46574;BME280;32299;53.366;-1.544;2022-08-25T02:45:52;99166.40;;;21.06;44.20
46574;BME280;32299;53.366;-1.544;2022-08-25T02:48:19;99169.96;;;20.45;45.51
46574;BME280;32299;53.366;-1.544;2022-08-25T02:50:46;99167.10;;;20.74;44.72
46574;BME280;32299;53.366;-1.544;2022-08-25T02:53:14;99165.92;;;21.12;44.46
46574;BME280;32299;53.366;-1.544;2022-08-25T02:55:41;99157.19;;;20.66;44.27
46574;BME280;32299;53.366;-1.544;2022-08-25T02:58:08;99151.97;;;21.01;44.13
46574;BME280;32299;53.366;-1.544;2022-08-25T03:00:35;99148.93;;;21.03;44.03
46574;BME280;32299;53.366;-1.544;2022-08-25T03:03:04;99146.24;;;20.74;43.93
46574;BME280;32299;53.366;-1.544;2022-08-25T03:05:31;99142.21;;;20.77;43.89
46574;BME280;32299;53.366;-1.544;2022-08-25T03:07:58;99137.94;;;20.82;43.74
46574;BME280;32299;53.366;-1.544;2022-08-25T03:10:26;99133.74;;;20.54;43.54
46574;BME280;32299;53.366;-1.544;2022-08-25T03:12:54;99139.26;;;20.96;43.75
46574;BME280;32299;53.366;-1.544;2022-08-25T03:15:22;99139.75;;;20.68;43.80
46574;BME280;32299;53.366;-1.544;2022-08-25T03:17:49;99133.17;;;20.99;44.14
46574;BME280;32299;53.366;-1.544;2022-08-25T03:20:17;99125.21;;;20.86;43.84
46574;BME280;32299;53.366;-1.544;2022-08-25T03:22:44;99122.30;;;21.01;43.88
46574;BME280;32299;53.366;-1.544;2022-08-25T03:25:12;99120.63;;;20.58;43.62
46574;BME280;32299;53.366;-1.544;2022-08-25T03:27:39;99116.95;;;20.55;43.37
46574;BME280;32299;53.366;-1.544;2022-08-25T03:30:07;99120.16;;;20.72;43.52
46574;BME280;32299;53.366;-1.544;2022-08-25T03:32:34;99118.97;;;20.52;43.52
46574;BME280;32299;53.366;-1.544;2022-08-25T03:35:03;99116.17;;;20.70;43.37
46574;BME280;32299;53.366;-1.544;2022-08-25T03:37:30;99117.97;;;20.11;44.09
46574;BME280;32299;53.366;-1.544;2022-08-25T03:39:57;99129.29;;;20.22;44.06
46574;BME280;32299;53.366;-1.544;2022-08-25T03:42:24;99130.16;;;20.38;43.96
46574;BME280;32299;53.366;-1.544;2022-08-25T03:44:51;99123.21;;;20.71;43.83
46574;BME280;32299;53.366;-1.544;2022-08-25T03:47:19;99127.65;;;20.56;43.35
46574;BME280;32299;53.366;-1.544;2022-08-25T03:49:46;99129.42;;;20.42;43.70
46574;BME280;32299;53.366;-1.544;2022-08-25T03:52:13;99125.42;;;20.46;43.74
46574;BME280;32299;53.366;-1.544;2022-08-25T03:54:41;99120.07;;;20.79;43.51
46574;BME280;32299;53.366;-1.544;2022-08-25T03:57:08;99118.29;;;20.50;43.59
46574;BME280;32299;53.366;-1.544;2022-08-25T03:59:35;99118.37;;;20.74;43.63
46574;BME280;32299;53.366;-1.544;2022-08-25T04:02:03;99124.47;;;20.59;44.04
46574;BME280;32299;53.366;-1.544;2022-08-25T04:04:31;99121.77;;;20.47;43.85
46574;BME280;32299;53.366;-1.544;2022-08-25T04:06:58;99114.97;;;20.52;43.48
46574;BME280;32299;53.366;-1.544;2022-08-25T04:09:26;99110.90;;;20.50;43.68
46574;BME280;32299;53.366;-1.544;2022-08-25T04:11:53;99107.27;;;20.57;43.60
46574;BME280;32299;53.366;-1.544;2022-08-25T04:14:21;99104.61;;;20.78;43.79
46574;BME280;32299;53.366;-1.544;2022-08-25T04:16:49;99103.54;;;20.70;44.02
46574;BME280;32299;53.366;-1.544;2022-08-25T04:19:16;99101.98;;;20.51;43.46
46574;BME280;32299;53.366;-1.544;2022-08-25T04:21:43;99102.35;;;20.61;44.23
46574;BME280;32299;53.366;-1.544;2022-08-25T04:24:11;99104.22;;;20.57;44.06
46574;BME280;32299;53.366;-1.544;2022-08-25T04:26:41;99105.36;;;20.60;43.43
46574;BME280;32299;53.366;-1.544;2022-08-25T04:29:10;99103.96;;;20.69;43.90
46574;BME280;32299;53.366;-1.544;2022-08-25T04:31:39;99105.91;;;20.59;44.20
46574;BME280;32299;53.366;-1.544;2022-08-25T04:34:07;99103.87;;;20.37;43.45
46574;BME280;32299;53.366;-1.544;2022-08-25T04:36:34;99092.66;;;20.11;44.09
46574;BME280;32299;53.366;-1.544;2022-08-25T04:39:02;99087.58;;;20.52;44.36
46574;BME280;32299;53.366;-1.544;2022-08-25T04:41:30;99080.96;;;20.51;43.94
46574;BME280;32299;53.366;-1.544;2022-08-25T04:43:59;99084.26;;;20.43;44.13
46574;BME280;32299;53.366;-1.544;2022-08-25T04:46:29;99087.91;;;20.27;44.33
46574;BME280;32299;53.366;-1.544;2022-08-25T04:48:58;99092.12;;;20.28;43.96
46574;BME280;32299;53.366;-1.544;2022-08-25T04:51:28;99089.81;;;20.42;44.39
46574;BME280;32299;53.366;-1.544;2022-08-25T04:53:58;99082.65;;;20.45;44.45
46574;BME280;32299;53.366;-1.544;2022-08-25T04:56:27;99083.83;;;20.52;44.23
46574;BME280;32299;53.366;-1.544;2022-08-25T04:58:55;99087.66;;;20.37;44.61
46574;BME280;32299;53.366;-1.544;2022-08-25T05:01:24;99093.25;;;20.49;44.33
46574;BME280;32299;53.366;-1.544;2022-08-25T05:03:54;99096.34;;;20.19;44.17
46574;BME280;32299;53.366;-1.544;2022-08-25T05:06:22;99098.90;;;20.55;44.00
46574;BME280;32299;53.366;-1.544;2022-08-25T05:08:50;99101.11;;;20.26;44.39
46574;BME280;32299;53.366;-1.544;2022-08-25T05:11:18;99103.00;;;20.55;44.23
46574;BME280;32299;53.366;-1.544;2022-08-25T05:13:49;99108.04;;;20.15;43.97
46574;BME280;32299;53.366;-1.544;2022-08-25T05:16:17;99111.44;;;20.68;44.00
46574;BME280;32299;53.366;-1.544;2022-08-25T05:18:44;99111.82;;;20.69;43.96
46574;BME280;32299;53.366;-1.544;2022-08-25T05:21:14;99107.85;;;20.68;44.03
46574;BME280;32299;53.366;-1.544;2022-08-25T05:23:41;99104.90;;;20.54;43.79
46574;BME280;32299;53.366;-1.544;2022-08-25T05:26:10;99110.90;;;20.65;44.06
46574;BME280;32299;53.366;-1.544;2022-08-25T05:28:38;99120.42;;;20.47;44.18
46574;BME280;32299;53.366;-1.544;2022-08-25T05:31:07;99124.43;;;20.71;43.82
46574;BME280;32299;53.366;-1.544;2022-08-25T05:33:35;99132.48;;;20.26;44.29
46574;BME280;32299;53.366;-1.544;2022-08-25T05:36:03;99134.62;;;20.35;44.47
46574;BME280;32299;53.366;-1.544;2022-08-25T05:38:32;99127.66;;;20.62;44.16
46574;BME280;32299;53.366;-1.544;2022-08-25T05:41:01;99127.34;;;20.29;44.35
46574;BME280;32299;53.366;-1.544;2022-08-25T05:43:29;99133.52;;;20.50;44.37
46574;BME280;32299;53.366;-1.544;2022-08-25T05:45:57;99136.77;;;20.60;43.89
46574;BME280;32299;53.366;-1.544;2022-08-25T05:48:26;99142.47;;;20.30;44.45
46574;BME280;32299;53.366;-1.544;2022-08-25T05:50:55;99145.56;;;20.49;44.33
46574;BME280;32299;53.366;-1.544;2022-08-25T05:53:25;99144.73;;;20.27;44.40
46574;BME280;32299;53.366;-1.544;2022-08-25T05:55:54;99136.73;;;20.39;44.14
46574;BME280;32299;53.366;-1.544;2022-08-25T05:58:23;99126.52;;;20.64;44.09
46574;BME280;32299;53.366;-1.544;2022-08-25T06:00:52;99128.58;;;20.42;44.17
46574;BME280;32299;53.366;-1.544;2022-08-25T06:03:19;99135.97;;;20.27;44.23
46574;BME280;32299;53.366;-1.544;2022-08-25T06:05:47;99135.01;;;20.77;43.88
46574;BME280;32299;53.366;-1.544;2022-08-25T06:08:14;99136.98;;;20.72;43.98
46574;BME280;32299;53.366;-1.544;2022-08-25T06:10:42;99136.46;;;20.44;44.22
46574;BME280;32299;53.366;-1.544;2022-08-25T06:13:09;99133.66;;;20.50;43.72
46574;BME280;32299;53.366;-1.544;2022-08-25T06:15:36;99136.20;;;20.20;44.06
46574;BME280;32299;53.366;-1.544;2022-08-25T06:18:03;99142.91;;;20.24;44.68
46574;BME280;32299;53.366;-1.544;2022-08-25T06:20:31;99146.26;;;20.68;44.06
46574;BME280;32299;53.366;-1.544;2022-08-25T06:22:59;99146.98;;;20.54;44.26
46574;BME280;32299;53.366;-1.544;2022-08-25T06:25:27;99144.32;;;20.67;43.75
46574;BME280;32299;53.366;-1.544;2022-08-25T06:27:54;99139.56;;;20.29;44.13
46574;BME280;32299;53.366;-1.544;2022-08-25T06:30:22;99135.14;;;20.51;43.52
46574;BME280;32299;53.366;-1.544;2022-08-25T06:32:50;99135.38;;;20.29;43.82
46574;BME280;32299;53.366;-1.544;2022-08-25T06:35:18;99137.95;;;20.44;43.38
46574;BME280;32299;53.366;-1.544;2022-08-25T06:37:46;99140.33;;;20.42;43.10
46574;BME280;32299;53.366;-1.544;2022-08-25T06:40:14;99137.80;;;20.10;43.46
46574;BME280;32299;53.366;-1.544;2022-08-25T06:42:42;99137.67;;;20.36;43.72
46574;BME280;32299;53.366;-1.544;2022-08-25T06:45:13;99133.42;;;20.41;42.82
46574;BME280;32299;53.366;-1.544;2022-08-25T06:47:40;99138.20;;;20.45;43.42
46574;BME280;32299;53.366;-1.544;2022-08-25T06:50:07;99140.44;;;20.46;43.49
46574;BME280;32299;53.366;-1.544;2022-08-25T06:52:35;99143.24;;;20.14;43.36
46574;BME280;32299;53.366;-1.544;2022-08-25T06:55:02;99141.41;;;20.53;42.94
46574;BME280;32299;53.366;-1.544;2022-08-25T06:57:30;99142.98;;;20.16;43.33
46574;BME280;32299;53.366;-1.544;2022-08-25T06:59:57;99145.89;;;20.29;43.09
46574;BME280;32299;53.366;-1.544;2022-08-25T07:02:24;99151.60;;;20.33;43.12
46574;BME280;32299;53.366;-1.544;2022-08-25T07:04:51;99153.97;;;20.59;43.14
46574;BME280;32299;53.366;-1.544;2022-08-25T07:07:18;99153.55;;;20.68;42.90
46574;BME280;32299;53.366;-1.544;2022-08-25T07:09:45;99153.74;;;20.68;43.03
46574;BME280;32299;53.366;-1.544;2022-08-25T07:12:12;99156.50;;;20.36;43.76
46574;BME280;32299;53.366;-1.544;2022-08-25T07:14:39;99159.49;;;20.29;43.72
46574;BME280;32299;53.366;-1.544;2022-08-25T07:17:06;99157.37;;;20.73;43.02
46574;BME280;32299;53.366;-1.544;2022-08-25T07:19:33;99159.93;;;20.44;43.07
46574;BME280;32299;53.366;-1.544;2022-08-25T07:22:00;99169.75;;;20.49;42.53
46574;BME280;32299;53.366;-1.544;2022-08-25T07:24:27;99170.13;;;20.73;42.54
46574;BME280;32299;53.366;-1.544;2022-08-25T07:26:54;99174.79;;;20.66;43.03
46574;BME280;32299;53.366;-1.544;2022-08-25T07:29:23;99175.68;;;20.51;42.29
46574;BME280;32299;53.366;-1.544;2022-08-25T07:31:51;99177.54;;;20.80;42.47
46574;BME280;32299;53.366;-1.544;2022-08-25T07:34:18;99178.15;;;20.43;43.07
46574;BME280;32299;53.366;-1.544;2022-08-25T07:36:45;99177.96;;;20.30;42.80
46574;BME280;32299;53.366;-1.544;2022-08-25T07:39:12;99179.47;;;20.63;42.57
46574;BME280;32299;53.366;-1.544;2022-08-25T07:41:40;99179.53;;;20.70;42.21
46574;BME280;32299;53.366;-1.544;2022-08-25T07:44:09;99175.88;;;20.81;42.39
46574;BME280;32299;53.366;-1.544;2022-08-25T07:46:37;99170.35;;;20.52;42.40
46574;BME280;32299;53.366;-1.544;2022-08-25T07:49:04;99166.61;;;20.21;42.98
46574;BME280;32299;53.366;-1.544;2022-08-25T07:51:32;99157.66;;;20.12;42.41
46574;BME280;32299;53.366;-1.544;2022-08-25T07:53:59;99167.25;;;20.38;42.57
46574;BME280;32299;53.366;-1.544;2022-08-25T07:56:26;99179.62;;;20.30;42.86
46574;BME280;32299;53.366;-1.544;2022-08-25T07:58:54;99180.33;;;19.15;45.47
46574;BME280;32299;53.366;-1.544;2022-08-25T08:01:22;99182.93;;;19.98;44.04
46574;BME280;32299;53.366;-1.544;2022-08-25T08:03:50;99184.62;;;19.91;43.78
46574;BME280;32299;53.366;-1.544;2022-08-25T08:06:20;99183.24;;;19.86;44.00
46574;BME280;32299;53.366;-1.544;2022-08-25T08:08:49;99186.87;;;19.69;44.13
46574;BME280;32299;53.366;-1.544;2022-08-25T08:11:18;99186.19;;;19.39;45.02
46574;BME280;32299;53.366;-1.544;2022-08-25T08:13:46;99183.59;;;19.35;45.33
46574;BME280;32299;53.366;-1.544;2022-08-25T08:16:17;99181.70;;;19.68;44.78
46574;BME280;32299;53.366;-1.544;2022-08-25T08:18:45;99185.51;;;19.83;44.51
46574;BME280;32299;53.366;-1.544;2022-08-25T08:21:14;99196.53;;;20.07;44.06
46574;BME280;32299;53.366;-1.544;2022-08-25T08:23:42;99194.94;;;19.46;45.05
46574;BME280;32299;53.366;-1.544;2022-08-25T08:26:10;99195.95;;;19.69;45.36
46574;BME280;32299;53.366;-1.544;2022-08-25T08:28:36;99192.74;;;18.87;46.45
46574;BME280;32299;53.366;-1.544;2022-08-25T08:31:03;99194.75;;;19.25;45.88
46574;BME280;32299;53.366;-1.544;2022-08-25T08:33:30;99195.57;;;19.79;45.80
46574;BME280;32299;53.366;-1.544;2022-08-25T08:36:02;99198.53;;;19.44;45.78
46574;BME280;32299;53.366;-1.544;2022-08-25T08:38:30;99198.10;;;19.58;45.31
46574;BME280;32299;53.366;-1.544;2022-08-25T08:41:05;99193.29;;;19.17;46.44
46574;BME280;32299;53.366;-1.544;2022-08-25T08:43:35;99196.18;;;19.69;45.12
46574;BME280;32299;53.366;-1.544;2022-08-25T08:46:02;99195.67;;;19.48;46.33
46574;BME280;32299;53.366;-1.544;2022-08-25T08:48:54;99199.52;;;19.89;45.21
46574;BME280;32299;53.366;-1.544;2022-08-25T08:51:31;99200.61;;;18.91;46.82
46574;BME280;32299;53.366;-1.544;2022-08-25T08:54:04;99204.60;;;19.71;45.66
46574;BME280;32299;53.366;-1.544;2022-08-25T08:56:37;99203.80;;;19.24;46.14
46574;BME280;32299;53.366;-1.544;2022-08-25T08:59:10;99205.06;;;19.62;45.21
46574;BME280;32299;53.366;-1.544;2022-08-25T09:01:45;99198.11;;;19.46;46.14
46574;BME280;32299;53.366;-1.544;2022-08-25T09:04:17;99196.89;;;19.53;45.39
46574;BME280;32299;53.366;-1.544;2022-08-25T09:06:47;99199.74;;;19.82;45.16
46574;BME280;32299;53.366;-1.544;2022-08-25T09:09:19;99200.91;;;19.52;45.23
46574;BME280;32299;53.366;-1.544;2022-08-25T09:11:55;99198.59;;;19.60;45.52
46574;BME280;32299;53.366;-1.544;2022-08-25T09:14:36;99196.13;;;19.12;46.55
46574;BME280;32299;53.366;-1.544;2022-08-25T09:17:12;99201.78;;;19.71;45.72
46574;BME280;32299;53.366;-1.544;2022-08-25T09:20:03;99203.92;;;19.55;45.20
46574;BME280;32299;53.366;-1.544;2022-08-25T09:22:42;99203.02;;;18.73;47.83
46574;BME280;32299;53.366;-1.544;2022-08-25T09:25:19;99202.66;;;19.32;46.06
46574;BME280;32299;53.366;-1.544;2022-08-25T09:27:55;99204.58;;;19.72;45.90
46574;BME280;32299;53.366;-1.544;2022-08-25T09:30:27;99208.82;;;19.39;45.94
46574;BME280;32299;53.366;-1.544;2022-08-25T09:32:59;99211.17;;;19.63;45.72
46574;BME280;32299;53.366;-1.544;2022-08-25T09:35:28;99210.73;;;19.77;45.47
46574;BME280;32299;53.366;-1.544;2022-08-25T09:37:57;99208.07;;;19.34;45.51
46574;BME280;32299;53.366;-1.544;2022-08-25T09:40:26;99205.05;;;19.41;45.44
46574;BME280;32299;53.366;-1.544;2022-08-25T09:42:55;99205.08;;;19.75;45.91
46574;BME280;32299;53.366;-1.544;2022-08-25T09:45:35;99204.06;;;19.37;45.91
46574;BME280;32299;53.366;-1.544;2022-08-25T09:48:24;99200.76;;;20.24;45.08
46574;BME280;32299;53.366;-1.544;2022-08-25T09:50:56;99199.52;;;19.63;45.82
46574;BME280;32299;53.366;-1.544;2022-08-25T09:53:24;99195.70;;;19.71;45.75
46574;BME280;32299;53.366;-1.544;2022-08-25T09:55:58;99195.61;;;19.61;46.41
46574;BME280;32299;53.366;-1.544;2022-08-25T09:58:26;99193.45;;;20.16;45.64
46574;BME280;32299;53.366;-1.544;2022-08-25T10:01:06;99194.26;;;19.55;46.28
46574;BME280;32299;53.366;-1.544;2022-08-25T10:03:37;99193.68;;;20.29;45.76
46574;BME280;32299;53.366;-1.544;2022-08-25T10:06:19;99190.58;;;20.09;45.58
46574;BME280;32299;53.366;-1.544;2022-08-25T10:08:54;99186.86;;;19.89;45.64
46574;BME280;32299;53.366;-1.544;2022-08-25T10:11:36;99182.49;;;20.24;45.48
46574;BME280;32299;53.366;-1.544;2022-08-25T10:14:13;99178.83;;;20.11;45.77
46574;BME280;32299;53.366;-1.544;2022-08-25T10:16:41;99176.75;;;20.09;45.43
46574;BME280;32299;53.366;-1.544;2022-08-25T10:19:10;99178.06;;;20.09;45.94
46574;BME280;32299;53.366;-1.544;2022-08-25T10:21:39;99177.85;;;20.17;46.52
46574;BME280;32299;53.366;-1.544;2022-08-25T10:24:09;99178.66;;;20.15;45.81
46574;BME280;32299;53.366;-1.544;2022-08-25T10:26:48;99181.81;;;19.41;47.46
46574;BME280;32299;53.366;-1.544;2022-08-25T10:29:31;99183.37;;;19.60;46.83
46574;BME280;32299;53.366;-1.544;2022-08-25T10:32:09;99180.06;;;20.22;46.42
46574;BME280;32299;53.366;-1.544;2022-08-25T10:34:46;99178.19;;;20.35;46.14
46574;BME280;32299;53.366;-1.544;2022-08-25T10:37:22;99170.03;;;20.51;45.24
46574;BME280;32299;53.366;-1.544;2022-08-25T10:40:05;99167.96;;;20.32;45.65
46574;BME280;32299;53.366;-1.544;2022-08-25T10:42:40;99161.13;;;20.36;45.65
46574;BME280;32299;53.366;-1.544;2022-08-25T10:45:16;99155.04;;;20.47;45.58
46574;BME280;32299;53.366;-1.544;2022-08-25T10:47:56;99149.63;;;20.37;45.10
46574;BME280;32299;53.366;-1.544;2022-08-25T10:50:30;99146.86;;;20.27;45.66
46574;BME280;32299;53.366;-1.544;2022-08-25T10:53:11;99146.25;;;20.67;45.26
46574;BME280;32299;53.366;-1.544;2022-08-25T10:55:47;99145.86;;;20.49;45.74
46574;BME280;32299;53.366;-1.544;2022-08-25T10:58:21;99141.38;;;20.61;44.98
46574;BME280;32299;53.366;-1.544;2022-08-25T11:00:57;99140.82;;;20.94;44.54
46574;BME280;32299;53.366;-1.544;2022-08-25T11:03:37;99143.66;;;20.85;44.98
46574;BME280;32299;53.366;-1.544;2022-08-25T11:06:12;99146.11;;;20.58;45.87
46574;BME280;32299;53.366;-1.544;2022-08-25T11:08:44;99146.03;;;20.38;45.87
46574;BME280;32299;53.366;-1.544;2022-08-25T11:11:19;99145.32;;;20.17;45.96
46574;BME280;32299;53.366;-1.544;2022-08-25T11:13:54;99145.95;;;20.30;44.33
46574;BME280;32299;53.366;-1.544;2022-08-25T11:16:32;99141.65;;;20.31;45.41
46574;BME280;32299;53.366;-1.544;2022-08-25T11:19:08;99142.65;;;20.16;44.91
46574;BME280;32299;53.366;-1.544;2022-08-25T11:21:43;99140.46;;;20.28;45.32
46574;BME280;32299;53.366;-1.544;2022-08-25T11:24:31;99143.74;;;20.16;45.36
46574;BME280;32299;53.366;-1.544;2022-08-25T11:27:04;99145.61;;;19.54;45.96
46574;BME280;32299;53.366;-1.544;2022-08-25T11:29:34;99146.86;;;20.15;45.42
46574;BME280;32299;53.366;-1.544;2022-08-25T11:32:04;99151.22;;;19.49;46.38
46574;BME280;32299;53.366;-1.544;2022-08-25T11:34:34;99148.19;;;20.39;44.49
46574;BME280;32299;53.366;-1.544;2022-08-25T11:37:06;99150.24;;;20.23;44.92
46574;BME280;32299;53.366;-1.544;2022-08-25T11:40:00;99144.05;;;20.72;44.48
46574;BME280;32299;53.366;-1.544;2022-08-25T11:42:38;99141.04;;;20.44;44.73
46574;BME280;32299;53.366;-1.544;2022-08-25T11:45:18;99137.89;;;20.50;44.13
46574;BME280;32299;53.366;-1.544;2022-08-25T11:48:00;99139.60;;;20.95;43.68
46574;BME280;32299;53.366;-1.544;2022-08-25T11:50:32;99140.36;;;20.54;44.14
46574;BME280;32299;53.366;-1.544;2022-08-25T11:53:15;99133.17;;;20.84;44.14
46574;BME280;32299;53.366;-1.544;2022-08-25T11:55:48;99127.36;;;20.51;44.29
46574;BME280;32299;53.366;-1.544;2022-08-25T11:58:50;99135.07;;;21.56;44.23
46574;BME280;32299;53.366;-1.544;2022-08-25T12:02:01;99152.51;;;21.49;44.07
46574;BME280;32299;53.366;-1.544;2022-08-25T12:04:35;99158.29;;;20.75;43.78
46574;BME280;32299;53.366;-1.544;2022-08-25T12:07:23;99159.43;;;20.94;43.73
46574;BME280;32299;53.366;-1.544;2022-08-25T12:10:24;99161.50;;;22.01;43.47
46574;BME280;32299;53.366;-1.544;2022-08-25T12:12:59;99162.97;;;20.88;43.86
46574;BME280;32299;53.366;-1.544;2022-08-25T12:15:33;99164.53;;;21.12;43.56
46574;BME280;32299;53.366;-1.544;2022-08-25T12:18:41;99158.79;;;21.20;43.47
46574;BME280;32299;53.366;-1.544;2022-08-25T12:21:12;99155.66;;;21.07;43.80
46574;BME280;32299;53.366;-1.544;2022-08-25T12:23:41;99150.61;;;21.19;42.92
46574;BME280;32299;53.366;-1.544;2022-08-25T12:26:15;99150.53;;;21.12;43.96
46574;BME280;32299;53.366;-1.544;2022-08-25T12:28:58;99153.85;;;20.30;45.50
46574;BME280;32299;53.366;-1.544;2022-08-25T12:31:45;99153.45;;;21.08;43.56
46574;BME280;32299;53.366;-1.544;2022-08-25T12:34:29;99157.37;;;21.13;43.73
46574;BME280;32299;53.366;-1.544;2022-08-25T12:37:03;99160.77;;;21.10;44.07
46574;BME280;32299;53.366;-1.544;2022-08-25T12:39:35;99164.47;;;21.21;43.74
46574;BME280;32299;53.366;-1.544;2022-08-25T12:42:05;99168.88;;;21.22;44.19
46574;BME280;32299;53.366;-1.544;2022-08-25T12:44:38;99166.32;;;21.29;43.86
46574;BME280;32299;53.366;-1.544;2022-08-25T12:47:26;99167.40;;;21.37;44.62
46574;BME280;32299;53.366;-1.544;2022-08-25T12:50:27;99168.77;;;21.10;44.26
46574;BME280;32299;53.366;-1.544;2022-08-25T12:52:59;99171.19;;;21.19;43.99
46574;BME280;32299;53.366;-1.544;2022-08-25T12:55:32;99169.03;;;21.32;43.95
46574;BME280;32299;53.366;-1.544;2022-08-25T12:58:01;99173.48;;;21.36;44.35
46574;BME280;32299;53.366;-1.544;2022-08-25T13:00:36;99168.40;;;21.44;44.13
46574;BME280;32299;53.366;-1.544;2022-08-25T13:03:32;99167.26;;;21.29;44.28
46574;BME280;32299;53.366;-1.544;2022-08-25T13:06:18;99160.60;;;21.50;43.39
46574;BME280;32299;53.366;-1.544;2022-08-25T13:09:30;99165.13;;;21.43;43.54
46574;BME280;32299;53.366;-1.544;2022-08-25T13:12:11;99165.49;;;21.52;43.79